^^
Saratoga-Weather Station Historical Data
Daily Summary for September 17, 2020 Units:  Metric    English   Both
Daily Weekly Monthly Yearly Custom
  High: Low: Average:
Temperature: 9 °C 2.6 °C 5.7 °C
Dew Point: 7.8 °C 2.1 °C 4.8 °C
Humidity: 98% 87% 94%
Wind Speed: 17.7km/h 0km/h 2.1km/h
Wind Gust: 20.9km/h - -
Wind- - West
Pressure: 1023.0 hPa 1016.6 hPa -
Precipitation: 3.3 mm    
Historical Graphs
 
 
Tabular Data for September 17, 2020
Time Temperature Dew Point Pressure Wind Wind Speed Wind Gust Humidity Rainfall Rate (Hourly) solar
00:01 3.8 °C 3.2 °C 1021.3 hPa Calm     96% 0.0 mm 0 W/m2
00:06 3.8 °C 3.2 °C 1021.3 hPa Calm     96% 0.0 mm 0 W/m2
00:11 3.7 °C 3.1 °C 1021.3 hPa Calm   3.2 km/h 96% 0.0 mm 0 W/m2
00:16 3.7 °C 3.1 °C 1021.3 hPa Calm   6.4 km/h 96% 0.0 mm 0 W/m2
00:21 3.7 °C 3.1 °C 1021.0 hPa Calm     96% 0.0 mm 0 W/m2
00:26 3.7 °C 3.1 °C 1021.0 hPa Calm   6.4 km/h 96% 0.0 mm 0 W/m2
00:31 3.7 °C 3.1 °C 1021.0 hPa Calm     96% 0.0 mm 0 W/m2
00:36 3.6 °C 3 °C 1021.0 hPa Calm     96% 0.0 mm 0 W/m2
00:41 3.6 °C 3 °C 1021.3 hPa Calm     96% 0.0 mm 0 W/m2
00:46 3.5 °C 2.9 °C 1021.0 hPa Calm     96% 0.0 mm 0 W/m2
00:51 3.5 °C 2.9 °C 1021.0 hPa Calm     96% 0.0 mm 0 W/m2
00:56 3.5 °C 2.9 °C 1021.0 hPa Calm   1.6 km/h 96% 0.0 mm 0 W/m2
01:01 3.4 °C 2.8 °C 1021.0 hPa Calm     96% 0.0 mm 0 W/m2
01:06 3.4 °C 2.8 °C 1020.7 hPa Calm     96% 0.0 mm 0 W/m2
01:11 3.4 °C 2.8 °C 1020.7 hPa Calm     96% 0.0 mm 0 W/m2
01:16 3.4 °C 2.8 °C 1020.7 hPa Calm     96% 0.0 mm 0 W/m2
01:21 3.4 °C 2.8 °C 1020.7 hPa Calm     96% 0.0 mm 0 W/m2
01:26 3.4 °C 2.8 °C 1020.7 hPa Calm     96% 0.0 mm 0 W/m2
01:31 3.6 °C 3 °C 1020.7 hPa Calm     96% 0.0 mm 0 W/m2
01:36 3.6 °C 3 °C 1020.7 hPa Calm     96% 0.0 mm 0 W/m2
01:41 3.5 °C 2.9 °C 1020.7 hPa Calm     96% 0.0 mm 0 W/m2
01:46 3.5 °C 2.9 °C 1020.3 hPa Calm     96% 0.0 mm 0 W/m2
01:51 3.4 °C 2.8 °C 1020.3 hPa Calm     96% 0.0 mm 0 W/m2
01:56 3.3 °C 2.7 °C 1020.3 hPa Calm     96% 0.0 mm 0 W/m2
02:02 3.4 °C 2.8 °C 1020.3 hPa Calm     96% 0.0 mm 0 W/m2
02:07 3.4 °C 3 °C 1020.3 hPa Calm     97% 0.0 mm 0 W/m2
02:12 3.3 °C 2.7 °C 1020.3 hPa Calm     96% 0.0 mm 0 W/m2
02:17 3.3 °C 2.7 °C 1020.0 hPa Calm     96% 0.0 mm 0 W/m2
02:22 3.3 °C 2.7 °C 1020.0 hPa Calm     96% 0.0 mm 0 W/m2
02:27 3.3 °C 2.7 °C 1020.0 hPa Calm     96% 0.0 mm 0 W/m2
02:32 3.2 °C 2.6 °C 1020.0 hPa Calm     96% 0.0 mm 0 W/m2
02:37 3.2 °C 2.6 °C 1020.0 hPa Calm     96% 0.0 mm 0 W/m2
02:42 3.1 °C 2.5 °C 1020.0 hPa Calm     96% 0.0 mm 0 W/m2
02:47 3.1 °C 2.7 °C 1019.6 hPa Calm     97% 0.0 mm 0 W/m2
02:52 3.2 °C 2.8 °C 1019.6 hPa Calm     97% 0.0 mm 0 W/m2
02:57 3.2 °C 2.8 °C 1019.6 hPa Calm     97% 0.0 mm 0 W/m2
03:02 3.2 °C 2.8 °C 1019.6 hPa Calm     97% 0.0 mm 0 W/m2
03:07 3.1 °C 2.7 °C 1019.6 hPa Calm     97% 0.0 mm 0 W/m2
03:12 3.1 °C 2.5 °C 1019.6 hPa Calm     96% 0.0 mm 0 W/m2
03:17 3 °C 2.4 °C 1019.6 hPa Calm     96% 0.0 mm 0 W/m2
03:22 3 °C 2.4 °C 1019.6 hPa Calm     96% 0.0 mm 0 W/m2
03:27 2.9 °C 2.3 °C 1019.6 hPa Calm     96% 0.0 mm 0 W/m2
03:32 2.9 °C 2.5 °C 1019.3 hPa Calm     97% 0.0 mm 0 W/m2
03:37 2.9 °C 2.5 °C 1019.3 hPa Calm     97% 0.0 mm 0 W/m2
03:42 2.8 °C 2.4 °C 1019.3 hPa Calm     97% 0.0 mm 0 W/m2
03:47 2.9 °C 2.5 °C 1019.3 hPa Calm     97% 0.2 mm 0 W/m2
03:52 2.9 °C 2.5 °C 1019.3 hPa Calm     97% 0.2 mm 0 W/m2
03:57 2.8 °C 2.4 °C 1019.3 hPa Calm     97% 0.2 mm 0 W/m2
04:02 2.8 °C 2.4 °C 1019.0 hPa Calm     97% 0.2 mm 0 W/m2
04:07 2.8 °C 2.2 °C 1019.0 hPa Calm     96% 0.2 mm 0 W/m2
04:12 2.8 °C 2.4 °C 1019.0 hPa Calm     97% 0.2 mm 0 W/m2
04:17 2.8 °C 2.4 °C 1019.0 hPa Calm     97% 0.2 mm 0 W/m2
04:22 2.7 °C 2.3 °C 1019.0 hPa Calm     97% 0.2 mm 0 W/m2
04:27 2.7 °C 2.1 °C 1019.0 hPa Calm     96% 0.2 mm 0 W/m2
04:32 2.7 °C 2.3 °C 1018.6 hPa Calm     97% 0.2 mm 0 W/m2
04:37 2.6 °C 2.2 °C 1019.0 hPa Calm     97% 0.2 mm 0 W/m2
04:42 2.6 °C 2.2 °C 1018.6 hPa Calm     97% 0.2 mm 0 W/m2
04:47 2.6 °C 2.2 °C 1018.6 hPa Calm     97% 0.0 mm 0 W/m2
04:52 2.6 °C 2.2 °C 1018.6 hPa Calm     97% 0.0 mm 0 W/m2
04:57 2.6 °C 2.2 °C 1018.6 hPa Calm     97% 0.0 mm 0 W/m2
05:02 2.6 °C 2.2 °C 1018.3 hPa Calm     97% 0.0 mm 0 W/m2
05:07 2.6 °C 2.2 °C 1018.3 hPa Calm     97% 0.0 mm 0 W/m2
05:12 2.6 °C 2.2 °C 1018.3 hPa Calm     97% 0.0 mm 0 W/m2
05:17 2.6 °C 2.2 °C 1018.3 hPa Calm     97% 0.0 mm 0 W/m2
05:22 2.6 °C 2.2 °C 1018.3 hPa Calm     97% 0.0 mm 0 W/m2
05:27 2.7 °C 2.3 °C 1018.3 hPa Calm     97% 0.0 mm 0 W/m2
05:32 2.8 °C 2.4 °C 1018.3 hPa Calm     97% 0.0 mm 0 W/m2
05:37 2.8 °C 2.4 °C 1018.3 hPa Calm     97% 0.0 mm 0 W/m2
05:42 2.8 °C 2.4 °C 1018.0 hPa Calm     97% 0.0 mm 0 W/m2
05:47 2.8 °C 2.4 °C 1018.0 hPa Calm     97% 0.0 mm 0 W/m2
05:52 2.7 °C 2.3 °C 1018.0 hPa Calm     97% 0.0 mm 0 W/m2
05:57 2.7 °C 2.3 °C 1018.0 hPa Calm     97% 0.0 mm 0 W/m2
06:02 2.7 °C 2.3 °C 1018.0 hPa Calm     97% 0.0 mm 0 W/m2
06:07 2.7 °C 2.3 °C 1018.0 hPa Calm     97% 0.0 mm 0 W/m2
06:12 2.6 °C 2.2 °C 1018.0 hPa Calm     97% 0.0 mm 0 W/m2
06:17 2.7 °C 2.3 °C 1018.0 hPa Calm     97% 0.0 mm 0 W/m2
06:22 2.7 °C 2.3 °C 1018.0 hPa Calm     97% 0.0 mm 0 W/m2
06:27 2.7 °C 2.3 °C 1018.0 hPa Calm     97% 0.0 mm 0 W/m2
06:32 2.7 °C 2.3 °C 1018.0 hPa Calm     97% 0.0 mm 0 W/m2
06:37 2.7 °C 2.3 °C 1018.0 hPa Calm     97% 0.0 mm 0 W/m2
06:42 3.1 °C 2.7 °C 1019.0 hPa West 6.4 km/h 17.7 km/h 97% 0.0 mm 0 W/m2
06:48 3.2 °C 2.8 °C 1018.6 hPa Calm   1.6 km/h 97% 0.0 mm 0 W/m2
06:53 3.3 °C 2.9 °C 1018.3 hPa Calm   17.7 km/h 97% 0.0 mm 0 W/m2
06:58 3.4 °C 3 °C 1018.3 hPa Calm     97% 0.0 mm 0 W/m2
07:03 3.4 °C 3 °C 1018.3 hPa Calm     97% 0.0 mm 0 W/m2
07:08 3.5 °C 3.1 °C 1018.3 hPa Calm     97% 0.0 mm 0 W/m2
07:13 3.6 °C 3.2 °C 1018.3 hPa Calm     97% 0.0 mm 0 W/m2
07:18 3.7 °C 3.3 °C 1018.3 hPa Calm     97% 0.0 mm 0 W/m2
07:23 3.7 °C 3.3 °C 1018.3 hPa Calm     97% 0.0 mm 0 W/m2
07:28 3.7 °C 3.3 °C 1018.3 hPa Calm     97% 0.0 mm 0 W/m2
07:33 3.7 °C 3.3 °C 1018.3 hPa Calm     97% 0.0 mm 0 W/m2
07:38 3.6 °C 3.2 °C 1018.3 hPa Calm     97% 0.0 mm 0 W/m2
07:43 3.6 °C 3.2 °C 1018.3 hPa Calm     97% 0.0 mm 0 W/m2
07:48 3.4 °C 3 °C 1018.0 hPa Calm     97% 0.0 mm 0 W/m2
07:53 3.3 °C 2.9 °C 1018.3 hPa Calm     97% 0.0 mm 0 W/m2
07:58 3.3 °C 2.9 °C 1018.0 hPa Calm     97% 0.0 mm 0 W/m2
08:03 3.3 °C 2.9 °C 1018.0 hPa Calm     97% 0.0 mm 0 W/m2
08:08 3.2 °C 2.8 °C 1018.0 hPa Calm     97% 0.0 mm 0 W/m2
08:13 3.2 °C 2.8 °C 1018.0 hPa Calm     97% 0.0 mm 0 W/m2
08:18 3.2 °C 2.8 °C 1018.3 hPa Calm     97% 0.0 mm 0 W/m2
08:23 3.2 °C 2.8 °C 1018.3 hPa Calm     97% 0.0 mm 0 W/m2
08:28 3.3 °C 2.9 °C 1018.0 hPa Calm     97% 0.0 mm 0 W/m2
08:33 3.3 °C 2.9 °C 1018.3 hPa Calm     97% 0.0 mm 0 W/m2
08:38 3.4 °C 3 °C 1018.0 hPa Calm     97% 0.0 mm 5 W/m2
08:43 3.4 °C 3 °C 1018.3 hPa Calm     97% 0.0 mm 9 W/m2
08:48 3.6 °C 3.2 °C 1018.3 hPa Calm     97% 0.0 mm 12 W/m2
08:53 3.6 °C 3.2 °C 1018.3 hPa Calm     97% 0.0 mm 16 W/m2
08:58 3.7 °C 3.3 °C 1018.3 hPa Calm     97% 0.0 mm 21 W/m2
09:03 3.7 °C 3.3 °C 1018.3 hPa Calm     97% 0.0 mm 25 W/m2
09:08 3.8 °C 3.4 °C 1018.3 hPa Calm     97% 0.0 mm 26 W/m2
09:13 3.9 °C 3.5 °C 1018.3 hPa Calm     97% 0.0 mm 18 W/m2
09:18 3.9 °C 3.5 °C 1018.0 hPa Calm     97% 0.0 mm 11 W/m2
09:23 4.1 °C 3.8 °C 1018.0 hPa Calm     98% 0.0 mm 21 W/m2
09:28 4.2 °C 3.9 °C 1018.0 hPa Calm     98% 0.0 mm 42 W/m2
09:33 4.3 °C 4 °C 1018.0 hPa Calm     98% 0.0 mm 58 W/m2
09:38 4.5 °C 4.2 °C 1018.0 hPa Calm     98% 0.0 mm 54 W/m2
09:43 4.6 °C 4.3 °C 1018.0 hPa Calm     98% 0.0 mm 49 W/m2
09:48 4.7 °C 4.4 °C 1018.0 hPa Calm   3.2 km/h 98% 0.0 mm 51 W/m2
09:53 4.9 °C 4.6 °C 1018.0 hPa Calm   3.2 km/h 98% 0.0 mm 53 W/m2
09:58 5.1 °C 4.8 °C 1017.6 hPa NNE 1.4 km/h 3.2 km/h 98% 0.0 mm 77 W/m2
10:03 5.3 °C 5 °C 1017.6 hPa Calm   1.6 km/h 98% 0.0 mm 90 W/m2
10:08 5.7 °C 5.4 °C 1017.6 hPa Calm   3.2 km/h 98% 0.0 mm 86 W/m2
10:13 6 °C 5.7 °C 1017.6 hPa NW 6.4 km/h 6.4 km/h 98% 0.0 mm 77 W/m2
10:18 6.4 °C 6.1 °C 1017.6 hPa NNW 4.7 km/h 6.4 km/h 98% 0.0 mm 62 W/m2
10:23 6.7 °C 6.4 °C 1017.3 hPa Calm   4.8 km/h 98% 0.0 mm 63 W/m2
10:28 6.9 °C 6.6 °C 1017.6 hPa North 1.4 km/h 9.7 km/h 98% 0.0 mm 60 W/m2
10:33 7.1 °C 6.8 °C 1017.6 hPa NW 6.4 km/h 14.5 km/h 98% 0.0 mm 49 W/m2
10:38 7.3 °C 7 °C 1017.6 hPa NW 6.4 km/h 6.4 km/h 98% 0.0 mm 37 W/m2
10:44 7.6 °C 7.3 °C 1017.6 hPa West 1.4 km/h 14.5 km/h 98% 0.0 mm 23 W/m2
10:49 7.7 °C 7.4 °C 1017.6 hPa NNW 1.4 km/h 4.8 km/h 98% 0.0 mm 16 W/m2
10:54 7.9 °C 7.3 °C 1017.6 hPa North 1.4 km/h 3.2 km/h 96% 0.0 mm 14 W/m2
10:59 8.1 °C 7.3 °C 1017.6 hPa Calm   3.2 km/h 95% 0.0 mm 16 W/m2
11:04 8.2 °C 7.3 °C 1017.6 hPa WNW 3.2 km/h 6.4 km/h 94% 0.0 mm 19 W/m2
11:09 8.4 °C 7.2 °C 1017.6 hPa SW 1.4 km/h 4.8 km/h 92% 0.0 mm 16 W/m2
11:14 8.7 °C 7.3 °C 1017.6 hPa NNW 1.4 km/h 6.4 km/h 91% 0.0 mm 16 W/m2
11:19 8.7 °C 7 °C 1017.6 hPa Calm   14.5 km/h 89% 0.0 mm 26 W/m2
11:24 8.9 °C 7 °C 1017.6 hPa Calm   4.8 km/h 88% 0.0 mm 30 W/m2
11:29 9 °C 7 °C 1017.6 hPa Calm   11.3 km/h 87% 0.0 mm 49 W/m2
11:34 9 °C 7 °C 1017.6 hPa WNW 6.4 km/h 9.7 km/h 87% 0.0 mm 54 W/m2
11:39 9 °C 7 °C 1017.6 hPa NW 3.2 km/h 3.2 km/h 87% 0.0 mm 53 W/m2
11:44 8.9 °C 7 °C 1017.6 hPa Calm   1.6 km/h 88% 0.0 mm 51 W/m2
11:49 8.9 °C 7 °C 1017.6 hPa Calm   6.4 km/h 88% 0.2 mm 51 W/m2
11:54 8.9 °C 7 °C 1017.6 hPa West 3.2 km/h 4.8 km/h 88% 0.2 mm 54 W/m2
11:59 8.8 °C 7.1 °C 1017.6 hPa NNW 4.7 km/h 9.7 km/h 89% 0.5 mm 54 W/m2
12:04 8.7 °C 7 °C 1017.6 hPa WNW 4.7 km/h 6.4 km/h 89% 0.5 mm 47 W/m2
12:09 8.7 °C 7.2 °C 1017.3 hPa WNW 6.4 km/h 11.3 km/h 90% 0.5 mm 42 W/m2
12:14 8.6 °C 7.2 °C 1017.3 hPa WSW 14.3 km/h 14.5 km/h 91% 0.5 mm 51 W/m2
12:19 8.5 °C 7.1 °C 1017.3 hPa Calm   4.8 km/h 91% 0.8 mm 53 W/m2
12:24 8.4 °C 7 °C 1017.3 hPa WSW 1.4 km/h 6.4 km/h 91% 0.8 mm 53 W/m2
12:29 8.4 °C 7.2 °C 1017.3 hPa NW 1.4 km/h 4.8 km/h 92% 1.0 mm 49 W/m2
12:34 8.3 °C 7.1 °C 1017.3 hPa Calm   1.6 km/h 92% 1.0 mm 51 W/m2
12:39 8.3 °C 7.1 °C 1017.3 hPa WNW 4.7 km/h 9.7 km/h 92% 1.3 mm 56 W/m2
12:44 8.3 °C 7.2 °C 1017.3 hPa SW 3.2 km/h 9.7 km/h 93% 1.3 mm 54 W/m2
12:49 8.3 °C 7.2 °C 1017.3 hPa Calm   6.4 km/h 93% 1.3 mm 47 W/m2
12:54 8.3 °C 7.2 °C 1016.9 hPa WSW 3.2 km/h 6.4 km/h 93% 1.3 mm 46 W/m2
12:59 8.3 °C 7.4 °C 1016.9 hPa SW 6.4 km/h 6.4 km/h 94% 1.3 mm 46 W/m2
13:04 8.3 °C 7.2 °C 1016.9 hPa Calm   1.6 km/h 93% 1.3 mm 42 W/m2
13:09 8.2 °C 7.3 °C 1016.9 hPa WNW 4.7 km/h 6.4 km/h 94% 1.3 mm 39 W/m2
13:14 8.2 °C 7.3 °C 1016.9 hPa Calm   8 km/h 94% 1.3 mm 54 W/m2
13:19 8.2 °C 7.3 °C 1016.9 hPa West 9.7 km/h 9.7 km/h 94% 1.0 mm 60 W/m2
13:24 8.3 °C 7.4 °C 1016.9 hPa Calm   3.2 km/h 94% 1.3 mm 47 W/m2
13:29 8.3 °C 7.4 °C 1016.9 hPa NW 1.4 km/h 3.2 km/h 94% 1.0 mm 42 W/m2
13:34 8.3 °C 7.4 °C 1016.9 hPa Calm   4.8 km/h 94% 1.0 mm 39 W/m2
13:39 8.3 °C 7.4 °C 1016.9 hPa WNW 3.2 km/h 4.8 km/h 94% 1.0 mm 51 W/m2
13:44 8.3 °C 7.4 °C 1016.9 hPa Calm   4.8 km/h 94% 1.0 mm 63 W/m2
13:49 8.3 °C 7.4 °C 1016.9 hPa ESE 1.4 km/h 4.8 km/h 94% 0.8 mm 53 W/m2
13:54 8.3 °C 7.4 °C 1016.9 hPa Calm   3.2 km/h 94% 0.8 mm 35 W/m2
13:59 8.3 °C 7.4 °C 1016.9 hPa Calm   3.2 km/h 94% 0.8 mm 21 W/m2
14:04 8.3 °C 7.4 °C 1016.9 hPa Calm   4.8 km/h 94% 0.8 mm 23 W/m2
14:09 8.3 °C 7.4 °C 1016.6 hPa Calm   4.8 km/h 94% 0.5 mm 19 W/m2
14:14 8.3 °C 7.5 °C 1016.6 hPa Calm   1.6 km/h 95% 0.5 mm 14 W/m2
14:19 8.3 °C 7.5 °C 1016.6 hPa Calm     95% 0.5 mm 28 W/m2
14:24 8.3 °C 7.5 °C 1016.6 hPa SE 3.2 km/h 3.2 km/h 95% 0.5 mm 21 W/m2
14:29 8.3 °C 7.5 °C 1016.6 hPa Calm     95% 0.5 mm 28 W/m2
14:34 8.3 °C 7.5 °C 1016.9 hPa Calm   9.7 km/h 95% 0.5 mm 40 W/m2
14:39 8.3 °C 7.5 °C 1016.9 hPa WSW 3.2 km/h 6.4 km/h 95% 0.5 mm 25 W/m2
14:45 8.4 °C 7.6 °C 1016.6 hPa SW 4.7 km/h 4.8 km/h 95% 0.5 mm 25 W/m2
14:50 8.4 °C 7.6 °C 1016.9 hPa NW 1.4 km/h 3.2 km/h 95% 0.5 mm 12 W/m2
14:55 8.4 °C 7.6 °C 1016.9 hPa WSW 1.4 km/h 12.9 km/h 95% 0.5 mm 21 W/m2
15:00 8.4 °C 7.6 °C 1016.9 hPa WNW 3.2 km/h 9.7 km/h 95% 0.5 mm 23 W/m2
15:05 8.4 °C 7.6 °C 1016.9 hPa WNW 1.4 km/h 1.6 km/h 95% 0.5 mm 26 W/m2
15:10 8.4 °C 7.6 °C 1016.9 hPa Calm   6.4 km/h 95% 0.5 mm 46 W/m2
15:15 8.5 °C 7.7 °C 1016.9 hPa Calm   3.2 km/h 95% 0.5 mm 26 W/m2
15:20 8.5 °C 7.7 °C 1016.9 hPa North 7.9 km/h 16.1 km/h 95% 0.5 mm 44 W/m2
15:25 8.6 °C 7.8 °C 1017.3 hPa Calm   3.2 km/h 95% 0.5 mm 30 W/m2
15:30 8.6 °C 7.8 °C 1017.3 hPa WSW 3.2 km/h 16.1 km/h 95% 0.5 mm 53 W/m2
15:35 8.6 °C 7.7 °C 1017.3 hPa West 9.7 km/h 12.9 km/h 94% 0.5 mm 83 W/m2
15:40 8.6 °C 7.7 °C 1017.3 hPa West 6.4 km/h 6.4 km/h 94% 0.2 mm 76 W/m2
15:45 8.7 °C 7.8 °C 1017.3 hPa WNW 6.4 km/h 11.3 km/h 94% 0.2 mm 53 W/m2
15:50 8.7 °C 7.8 °C 1017.3 hPa West 9.7 km/h 14.5 km/h 94% 0.0 mm 35 W/m2
15:55 8.7 °C 7.8 °C 1017.3 hPa WSW 7.9 km/h 8 km/h 94% 0.0 mm 30 W/m2
16:00 8.7 °C 7.6 °C 1017.6 hPa West 3.2 km/h 14.5 km/h 93% 0.0 mm 32 W/m2
16:05 8.7 °C 7.6 °C 1017.6 hPa WSW 6.4 km/h 6.4 km/h 93% 0.0 mm 30 W/m2
16:10 8.7 °C 7.6 °C 1017.6 hPa Calm   9.7 km/h 93% 0.0 mm 30 W/m2
16:15 8.7 °C 7.6 °C 1017.6 hPa Calm   3.2 km/h 93% 0.0 mm 33 W/m2
16:20 8.7 °C 7.6 °C 1018.0 hPa Calm   6.4 km/h 93% 0.0 mm 26 W/m2
16:25 8.7 °C 7.6 °C 1017.6 hPa WNW 3.2 km/h 3.2 km/h 93% 0.0 mm 37 W/m2
16:30 8.7 °C 7.6 °C 1018.0 hPa NNW 4.7 km/h 6.4 km/h 93% 0.0 mm 26 W/m2
16:35 8.6 °C 7.5 °C 1018.0 hPa Calm   3.2 km/h 93% 0.0 mm 21 W/m2
16:40 8.6 °C 7.5 °C 1018.0 hPa Calm     93% 0.0 mm 16 W/m2
16:45 8.6 °C 7.5 °C 1018.0 hPa Calm   11.3 km/h 93% 0.0 mm 12 W/m2
16:50 8.4 °C 7.3 °C 1018.3 hPa WNW 1.4 km/h 9.7 km/h 93% 0.0 mm 9 W/m2
16:55 8.4 °C 7.3 °C 1018.3 hPa West 1.4 km/h 11.3 km/h 93% 0.0 mm 7 W/m2
17:00 8.3 °C 7.2 °C 1018.3 hPa Calm     93% 0.0 mm 5 W/m2
17:05 8.2 °C 7.1 °C 1018.3 hPa Calm     93% 0.0 mm 0 W/m2
17:10 8.1 °C 7 °C 1018.3 hPa Calm   9.7 km/h 93% 0.0 mm 0 W/m2
17:15 8.1 °C 7 °C 1018.3 hPa Calm     93% 0.0 mm 0 W/m2
17:20 7.9 °C 6.8 °C 1018.3 hPa Calm   8 km/h 93% 0.0 mm 0 W/m2
17:25 7.8 °C 6.7 °C 1018.3 hPa Calm     93% 0.0 mm 0 W/m2
17:30 7.7 °C 6.6 °C 1018.3 hPa Calm   3.2 km/h 93% 0.0 mm 0 W/m2
17:35 7.7 °C 6.8 °C 1018.3 hPa WNW 1.4 km/h 4.8 km/h 94% 0.0 mm 0 W/m2
17:40 7.6 °C 6.7 °C 1018.6 hPa Calm   3.2 km/h 94% 0.0 mm 0 W/m2
17:45 7.7 °C 6.8 °C 1018.6 hPa Calm   4.8 km/h 94% 0.0 mm 0 W/m2
17:50 7.7 °C 6.8 °C 1018.6 hPa WNW 1.4 km/h 6.4 km/h 94% 0.0 mm 0 W/m2
17:55 7.7 °C 6.8 °C 1018.6 hPa West 1.4 km/h 11.3 km/h 94% 0.0 mm 0 W/m2
18:00 7.7 °C 6.6 °C 1018.6 hPa SSW 4.7 km/h 6.4 km/h 93% 0.0 mm 0 W/m2
18:05 7.6 °C 6.4 °C 1018.6 hPa WNW 1.4 km/h 6.4 km/h 92% 0.0 mm 0 W/m2
18:10 7.6 °C 6.2 °C 1019.0 hPa Calm   1.6 km/h 91% 0.0 mm 0 W/m2
18:15 7.7 °C 6.2 °C 1019.0 hPa WSW 1.4 km/h 9.7 km/h 90% 0.0 mm 0 W/m2
18:20 7.6 °C 6.1 °C 1019.0 hPa NW 4.7 km/h 4.8 km/h 90% 0.0 mm 0 W/m2
18:25 7.6 °C 6.1 °C 1019.0 hPa Calm   16.1 km/h 90% 0.0 mm 0 W/m2
18:30 7.6 °C 6.1 °C 1019.0 hPa Calm   11.3 km/h 90% 0.0 mm 0 W/m2
18:35 7.6 °C 6.1 °C 1019.0 hPa WSW 3.2 km/h 12.9 km/h 90% 0.0 mm 0 W/m2
18:40 7.6 °C 6.1 °C 1019.3 hPa West 13 km/h 14.5 km/h 90% 0.0 mm 0 W/m2
18:45 7.6 °C 6.1 °C 1019.3 hPa West 11.1 km/h 11.3 km/h 90% 0.0 mm 0 W/m2
18:50 7.6 °C 6.1 °C 1019.3 hPa WNW 6.4 km/h 14.5 km/h 90% 0.0 mm 0 W/m2
18:55 7.5 °C 6 °C 1019.3 hPa WSW 7.9 km/h 9.7 km/h 90% 0.0 mm 0 W/m2
19:00 7.5 °C 6.1 °C 1019.3 hPa Calm   16.1 km/h 91% 0.0 mm 0 W/m2
19:05 7.6 °C 6.2 °C 1019.6 hPa West 17.7 km/h 17.7 km/h 91% 0.0 mm 0 W/m2
19:10 7.6 °C 6.2 °C 1019.6 hPa WSW 6.4 km/h 12.9 km/h 91% 0.0 mm 0 W/m2
19:15 7.4 °C 6 °C 1019.6 hPa WSW 11.1 km/h 17.7 km/h 91% 0.0 mm 0 W/m2
19:20 7.3 °C 5.9 °C 1019.6 hPa SW 6.4 km/h 16.1 km/h 91% 0.0 mm 0 W/m2
19:25 7.2 °C 5.8 °C 1020.0 hPa WSW 6.4 km/h 11.3 km/h 91% 0.0 mm 0 W/m2
19:30 7.2 °C 5.8 °C 1020.0 hPa Calm   4.8 km/h 91% 0.0 mm 0 W/m2
19:35 7.1 °C 5.7 °C 1020.0 hPa Calm   8 km/h 91% 0.0 mm 0 W/m2
19:40 7 °C 5.6 °C 1020.0 hPa Calm   6.4 km/h 91% 0.0 mm 0 W/m2
19:45 6.9 °C 5.5 °C 1020.3 hPa Calm   1.6 km/h 91% 0.0 mm 0 W/m2
19:50 6.8 °C 5.4 °C 1020.3 hPa West 4.7 km/h 6.4 km/h 91% 0.0 mm 0 W/m2
19:55 6.7 °C 5.5 °C 1020.3 hPa Calm   11.3 km/h 92% 0.2 mm 0 W/m2
20:00 6.6 °C 5.4 °C 1020.3 hPa Calm   4.8 km/h 92% 0.2 mm 0 W/m2
20:05 6.6 °C 5.4 °C 1020.7 hPa WSW 7.9 km/h 16.1 km/h 92% 0.2 mm 0 W/m2
20:10 6.7 °C 5.5 °C 1020.7 hPa WSW 4.7 km/h 11.3 km/h 92% 0.2 mm 0 W/m2
20:15 6.7 °C 5.5 °C 1020.7 hPa WSW 16.1 km/h 16.1 km/h 92% 0.2 mm 0 W/m2
20:20 6.8 °C 5.6 °C 1021.0 hPa SSW 3.2 km/h 12.9 km/h 92% 0.2 mm 0 W/m2
20:25 6.8 °C 5.6 °C 1021.0 hPa West 9.7 km/h 11.3 km/h 92% 0.2 mm 0 W/m2
20:30 6.7 °C 5.3 °C 1021.0 hPa Calm   1.6 km/h 91% 0.2 mm 0 W/m2
20:36 6.6 °C 5.2 °C 1021.3 hPa SW 3.2 km/h 9.7 km/h 91% 0.2 mm 0 W/m2
20:41 6.4 °C 5.2 °C 1021.3 hPa WSW 1.4 km/h 4.8 km/h 92% 0.2 mm 0 W/m2
20:46 6.3 °C 4.9 °C 1021.3 hPa Calm   6.4 km/h 91% 0.2 mm 0 W/m2
20:51 6.3 °C 5.1 °C 1021.3 hPa WSW 6.4 km/h 6.4 km/h 92% 0.0 mm 0 W/m2
20:56 6.2 °C 5 °C 1021.3 hPa WSW 6.4 km/h 16.1 km/h 92% 0.0 mm 0 W/m2
21:01 6.3 °C 5.1 °C 1021.3 hPa WSW 1.4 km/h 8 km/h 92% 0.0 mm 0 W/m2
21:06 6.2 °C 5 °C 1021.3 hPa SW 4.7 km/h 16.1 km/h 92% 0.0 mm 0 W/m2
21:11 6.2 °C 5 °C 1021.3 hPa WSW 3.2 km/h 12.9 km/h 92% 0.0 mm 0 W/m2
21:16 6.2 °C 5 °C 1021.3 hPa SW 16.1 km/h 16.1 km/h 92% 0.0 mm 0 W/m2
21:21 6.1 °C 4.9 °C 1021.3 hPa West 3.2 km/h 14.5 km/h 92% 0.0 mm 0 W/m2
21:26 6.1 °C 4.9 °C 1021.3 hPa West 16.1 km/h 16.1 km/h 92% 0.0 mm 0 W/m2
21:31 6.1 °C 4.7 °C 1021.3 hPa WSW 3.2 km/h 12.9 km/h 91% 0.0 mm 0 W/m2
21:36 6.1 °C 4.7 °C 1021.3 hPa Calm   9.7 km/h 91% 0.0 mm 0 W/m2
21:41 6.1 °C 4.7 °C 1021.3 hPa West 11.1 km/h 16.1 km/h 91% 0.0 mm 0 W/m2
21:46 6.1 °C 4.7 °C 1021.3 hPa West 13 km/h 16.1 km/h 91% 0.0 mm 0 W/m2
21:51 6.1 °C 4.6 °C 1021.3 hPa West 11.1 km/h 14.5 km/h 90% 0.0 mm 0 W/m2
21:56 6.1 °C 4.6 °C 1021.7 hPa WNW 11.1 km/h 19.3 km/h 90% 0.0 mm 0 W/m2
22:01 6.1 °C 4.6 °C 1021.7 hPa WSW 3.2 km/h 8 km/h 90% 0.0 mm 0 W/m2
22:07 5.9 °C 4.4 °C 1021.7 hPa WSW 7.9 km/h 14.5 km/h 90% 0.0 mm 0 W/m2
22:12 5.9 °C 4.4 °C 1021.7 hPa West 3.2 km/h 9.7 km/h 90% 0.0 mm 0 W/m2
22:17 5.8 °C 4.3 °C 1021.7 hPa WSW 4.7 km/h 9.7 km/h 90% 0.0 mm 0 W/m2
22:22 5.8 °C 4.3 °C 1022.0 hPa WSW 6.4 km/h 16.1 km/h 90% 0.0 mm 0 W/m2
22:27 5.9 °C 4.4 °C 1022.0 hPa WSW 4.7 km/h 12.9 km/h 90% 0.0 mm 0 W/m2
22:32 5.8 °C 4.3 °C 1022.0 hPa WSW 1.4 km/h 16.1 km/h 90% 0.0 mm 0 W/m2
22:37 5.8 °C 4.1 °C 1022.0 hPa Calm   1.6 km/h 89% 0.0 mm 0 W/m2
22:42 5.7 °C 4.2 °C 1022.0 hPa Calm   6.4 km/h 90% 0.0 mm 0 W/m2
22:47 5.6 °C 4.1 °C 1022.4 hPa WSW 4.7 km/h 16.1 km/h 90% 0.0 mm 0 W/m2
22:52 5.6 °C 4.1 °C 1022.4 hPa WSW 7.9 km/h 8 km/h 90% 0.0 mm 0 W/m2
22:57 5.6 °C 4.1 °C 1022.4 hPa SW 4.7 km/h 16.1 km/h 90% 0.0 mm 0 W/m2
23:02 5.5 °C 4 °C 1022.4 hPa West 3.2 km/h 11.3 km/h 90% 0.0 mm 0 W/m2
23:07 5.5 °C 4 °C 1022.4 hPa WSW 3.2 km/h 12.9 km/h 90% 0.0 mm 0 W/m2
23:12 5.4 °C 3.9 °C 1022.4 hPa Calm   11.3 km/h 90% 0.0 mm 0 W/m2
23:17 5.3 °C 3.8 °C 1022.7 hPa WSW 7.9 km/h 14.5 km/h 90% 0.0 mm 0 W/m2
23:22 5.3 °C 3.8 °C 1022.7 hPa WSW 17.7 km/h 20.9 km/h 90% 0.0 mm 0 W/m2
23:27 5.3 °C 3.8 °C 1022.7 hPa WSW 9.7 km/h 14.5 km/h 90% 0.0 mm 0 W/m2
23:32 5.3 °C 3.6 °C 1023.0 hPa WSW 16.3 km/h 19.3 km/h 89% 0.0 mm 0 W/m2
23:37 5.3 °C 3.6 °C 1023.0 hPa Calm   9.7 km/h 89% 0.0 mm 0 W/m2
23:42 5.2 °C 3.5 °C 1023.0 hPa West 6.4 km/h 16.1 km/h 89% 0.0 mm 0 W/m2
23:47 5.2 °C 3.4 °C 1023.0 hPa Calm   6.4 km/h 88% 0.0 mm 0 W/m2
23:52 5.1 °C 3.4 °C 1023.0 hPa West 3.2 km/h 12.9 km/h 89% 0.0 mm 0 W/m2
23:57 4.9 °C 3.2 °C 1023.0 hPa West 3.2 km/h 4.8 km/h 89% 0.0 mm 0 W/m2
Juneau County Weather
Compliments of Weather Underground - 4 mb